AIRPORT METAR

METAR FOR LIEO
ADDS - METARS form results

(0210 UTC 16 September 2019)
Data provider http://aviationweather.gov/metar/data/
 
METAR text: LIEO 160150Z 17001KT CAVOK 16/15 Q1020
Conditions at: LIEO (OLBIA/COSTA SMER, IT) observed 0150 UTC 16 September 2019
Temperature: 16.0°C (61°F)
Dewpoint: 15.0°C (59°F) [RH = 94%]
Pressure (altimeter): 30.12 inches Hg (1020.0 mb)
Winds: from the S (170 degrees) at 1 MPH (1 knots; 0.5 m/s)
Visibility: 6 or more miles (10+ km)
Ceiling: ceiling and visibility are OK
Clouds: unknown
Weather: no significant weather observed at this time

METAR text: LIEO 160120Z VRB01KT CAVOK 17/16 Q1020
Conditions at: LIEO (OLBIA/COSTA SMER, IT) observed 0120 UTC 16 September 2019
Temperature: 17.0°C (63°F)
Dewpoint: 16.0°C (61°F) [RH = 94%]
Pressure (altimeter): 30.12 inches Hg (1020.0 mb)
Winds: variable direction winds at 1 MPH (1 knots; 0.5 m/s)
Visibility: 6 or more miles (10+ km)
Ceiling: ceiling and visibility are OK
Clouds: unknown
Weather: no significant weather observed at this time

Forecast for: LIEO (OLBIA/COSTA SMER, IT)
Text: TAF LIEO 152300Z 1600/1624 25006KT CAVOK
Forecast period: 0000 to 0900 UTC 16 September 2019
Forecast type: FROM: standard forecast or significant change
Winds: from the WSW (250 degrees) at 7 MPH (6 knots; 3.1 m/s)
Visibility: 6 or more miles 10+ km)
Ceiling: unknown
Clouds: missing
Weather: NSW  (no significant weather)
Text: BECMG 1609/1611 08012KT
Forecast period: 0900 to 1700 UTC 16 September 2019
Forecast type: BECOMING: Conditions expected to become as follows by 1100 UTC 16 September 2019
Winds: from the E (80 degrees) at 14 MPH (12 knots; 6.2 m/s)
Visibility: 6 or more miles 10+ km)
Ceiling: unknown
Clouds: missing
Weather: NSW  (no significant weather)
Text: BECMG 1617/1619 VRB05KT
Forecast period: 1700 UTC 16 September 2019 to 0000 UTC 17 September 2019
Forecast type: BECOMING: Conditions expected to become as follows by 1900 UTC 16 September 2019
Winds: variable direction winds at 6 MPH (5 knots; 2.6 m/s)
Visibility: 6 or more miles 10+ km)
Ceiling: unknown
Clouds: missing
Weather: NSW  (no significant weather)

AIRPORT MAP

 RUNWAY INFORMATION
Runway 05 Runway length 8025 ft Runway width 148 ft
Runway elevation 35 ft Runway displaced threshold 805 ft Runway heading 53
Runway 23 Runway length 8025 ft Runway width 148 ft
Runway elevation 19 ft Runway displaced threshold 495 ft Runway heading 233

 AIRPORT FREQUENCIES
Type APP Name OLBIA RADA Frequency 125.95 MHZ
Type ATIS Name ATIS Frequency 113.9 MHZ
Type TWR Name OLBIA TWR Frequency 118.975 MHZ

 AIRPORT NEAR NAVIGATION AIDS
Type VOR-DME Name Olbia Costa Smeralda Frequency 113900 KHZ
Type NDB Name Olbia Costa Smeralda Frequency 357 KHZ



© 2017 - Royal Sky Service, All Right Reserved. | Design & Developed by Davide Torresan